Time;durP1;ratioP1;P1;durP2;ratioP2;P2;SDS_P1;SDS_P2;PMS_P1;PMS_P2;Temp;Humidity;BMP_temperature;BMP_pressure;BME280_temperature;BME280_humidity;BME280_pressure;Samples;Min_cycle;Max_cycle;Signal;HPM_P1;HPM_P2
2022/04/06 00:00:18;;;;;;;0.40;0.40;;;11.10;99.90;;;;;;5010403;28;20384;-70
2022/04/06 00:02:45;;;;;;;0.40;0.20;;;11.00;99.90;;;;;;5009614;28;20799;-70
2022/04/06 00:05:11;;;;;;;0.40;0.20;;;11.10;99.90;;;;;;5010508;28;20428;-70
2022/04/06 00:07:41;;;;;;;0.40;0.20;;;11.20;99.90;;;;;;5009781;28;20418;-71
2022/04/06 00:10:08;;;;;;;0.40;0.20;;;11.00;99.90;;;;;;5016734;28;20399;-70
2022/04/06 00:12:35;;;;;;;0.40;0.30;;;11.10;99.90;;;;;;5004810;28;20494;-71
2022/04/06 00:15:02;;;;;;;0.40;0.30;;;11.00;99.90;;;;;;4990789;28;20445;-69
2022/04/06 00:17:28;;;;;;;0.40;0.20;;;11.00;99.90;;;;;;4994558;28;20477;-69
2022/04/06 00:19:53;;;;;;;0.40;0.20;;;11.00;99.90;;;;;;5008401;28;20505;-69
2022/04/06 00:22:19;;;;;;;0.40;0.20;;;11.10;99.90;;;;;;4994044;28;20871;-69
2022/04/06 00:24:45;;;;;;;0.40;0.30;;;11.10;99.90;;;;;;4994287;28;20397;-69
2022/04/06 00:27:11;;;;;;;0.40;0.20;;;11.00;99.90;;;;;;4993463;28;20458;-69
2022/04/06 00:29:37;;;;;;;0.40;0.20;;;11.00;99.90;;;;;;5009466;28;20397;-69
2022/04/06 00:32:03;;;;;;;1.20;0.90;;;11.10;99.90;;;;;;5012486;28;20385;-69
2022/04/06 00:37:13;;;;;;;0.40;0.20;;;10.90;99.90;;;;;;4992457;28;20533;-69
2022/04/06 00:39:38;;;;;;;0.40;0.30;;;11.00;99.90;;;;;;4993559;28;20509;-69
2022/04/06 00:42:04;;;;;;;0.40;0.20;;;11.00;99.90;;;;;;4993091;28;20478;-69
2022/04/06 00:44:34;;;;;;;0.80;0.80;;;11.00;99.90;;;;;;4995739;28;20799;-69
2022/04/06 00:47:03;;;;;;;0.40;0.25;;;11.00;99.90;;;;;;4993602;28;20386;-70
2022/04/06 00:49:30;;;;;;;0.40;0.20;;;10.90;99.90;;;;;;4993577;28;20386;-69
2022/04/06 00:51:56;;;;;;;1.00;1.00;;;11.00;99.90;;;;;;4992632;28;20387;-69
2022/04/06 00:54:23;;;;;;;0.40;0.20;;;11.00;99.90;;;;;;5007524;28;21025;-69
2022/04/06 00:56:49;;;;;;;0.40;0.20;;;11.00;99.90;;;;;;5008756;28;20883;-69
2022/04/06 00:59:16;;;;;;;0.40;0.20;;;11.00;99.90;;;;;;4993035;28;20421;-69
2022/04/06 01:01:44;;;;;;;0.50;0.50;;;11.00;99.90;;;;;;4993988;28;20383;-69
2022/04/06 01:04:10;;;;;;;0.40;0.30;;;11.00;99.90;;;;;;4993560;28;20902;-69
2022/04/06 01:06:36;;;;;;;0.40;0.20;;;11.00;99.90;;;;;;4992982;28;20417;-69
2022/04/06 01:09:02;;;;;;;0.40;0.20;;;11.00;99.90;;;;;;5006478;28;20397;-69
2022/04/06 01:11:28;;;;;;;0.40;0.20;;;10.90;99.90;;;;;;5032224;28;20387;-69
2022/04/06 01:13:55;;;;;;;0.40;0.20;;;10.90;99.90;;;;;;5033084;28;20864;-69
2022/04/06 01:16:20;;;;;;;0.40;0.20;;;10.80;99.90;;;;;;5033050;28;20383;-71
2022/04/06 01:18:46;;;;;;;0.40;0.20;;;10.90;99.90;;;;;;5015512;28;20425;-69
2022/04/06 01:21:12;;;;;;;0.40;0.20;;;10.90;99.90;;;;;;5012833;28;20520;-70
2022/04/06 01:23:42;;;;;;;0.40;0.20;;;10.90;99.90;;;;;;4992651;28;20382;-70
2022/04/06 01:26:09;;;;;;;0.40;0.20;;;11.00;99.90;;;;;;4992208;28;20395;-69
2022/04/06 01:28:36;;;;;;;0.40;0.30;;;11.10;99.90;;;;;;4998755;28;20440;-70
2022/04/06 01:31:02;;;;;;;0.40;0.20;;;11.00;99.90;;;;;;4996581;28;20390;-69
2022/04/06 01:33:28;;;;;;;0.50;0.50;;;11.00;99.90;;;;;;4993376;28;20402;-69
2022/04/06 01:35:55;;;;;;;0.40;0.20;;;11.00;99.90;;;;;;4991172;28;20441;-70
2022/04/06 01:38:21;;;;;;;0.70;0.60;;;11.00;99.90;;;;;;4992731;28;20807;-69
2022/04/06 01:40:47;;;;;;;0.40;0.20;;;11.00;99.90;;;;;;5007390;28;20418;-69
2022/04/06 01:43:12;;;;;;;0.40;0.20;;;11.00;99.90;;;;;;4993195;28;20387;-69
2022/04/06 01:45:38;;;;;;;0.40;0.20;;;11.00;99.90;;;;;;5007109;28;20389;-71
2022/04/06 01:48:04;;;;;;;0.40;0.20;;;11.10;99.90;;;;;;5011952;28;20416;-70
2022/04/06 01:53:14;;;;;;;0.40;0.20;;;10.90;99.90;;;;;;5012418;28;20885;-69
2022/04/06 01:55:40;;;;;;;0.40;0.22;;;10.80;99.90;;;;;;5011236;28;20404;-69
2022/04/06 01:58:06;;;;;;;0.40;0.20;;;10.90;99.90;;;;;;5011585;28;20401;-69
2022/04/06 02:00:32;;;;;;;0.40;0.20;;;11.00;99.90;;;;;;5012277;28;20501;-69
2022/04/06 02:03:00;;;;;;;0.40;0.20;;;10.90;99.90;;;;;;5011632;28;20523;-69
2022/04/06 02:05:30;;;;;;;0.40;0.20;;;10.90;99.90;;;;;;5027421;28;20408;-69
2022/04/06 02:07:56;;;;;;;0.40;0.20;;;11.00;99.90;;;;;;5012068;28;20397;-71
2022/04/06 02:10:21;;;;;;;0.40;0.20;;;11.00;99.90;;;;;;5022662;28;20387;-70
2022/04/06 02:12:47;;;;;;;0.40;0.30;;;11.00;99.90;;;;;;5031943;28;20395;-70
2022/04/06 02:15:14;;;;;;;0.40;0.20;;;11.10;99.90;;;;;;5031499;28;20454;-70
2022/04/06 02:17:42;;;;;;;0.40;0.20;;;11.10;99.90;;;;;;5047248;28;20721;-70
2022/04/06 02:20:08;;;;;;;0.40;0.20;;;11.00;99.90;;;;;;5031103;28;20441;-70
2022/04/06 02:22:34;;;;;;;0.40;0.20;;;11.00;99.90;;;;;;5031633;28;20946;-70
2022/04/06 02:25:00;;;;;;;0.40;0.40;;;10.90;99.90;;;;;;5031967;28;20466;-70
2022/04/06 02:27:26;;;;;;;0.60;0.60;;;11.00;99.90;;;;;;5031093;28;20410;-70
2022/04/06 02:29:51;;;;;;;0.40;0.22;;;11.00;99.90;;;;;;5031778;28;20379;-70
2022/04/06 02:32:17;;;;;;;0.40;0.40;;;11.00;99.90;;;;;;5031119;28;20445;-71
2022/04/06 02:34:43;;;;;;;0.40;0.30;;;10.90;99.90;;;;;;5022174;28;20448;-71
2022/04/06 02:37:11;;;;;;;0.40;0.20;;;10.90;99.90;;;;;;5011601;28;20412;-71
2022/04/06 02:39:37;;;;;;;0.40;0.20;;;10.90;99.90;;;;;;5010170;28;20420;-71
2022/04/06 02:42:03;;;;;;;0.40;0.20;;;10.90;99.90;;;;;;5027133;28;20981;-71
2022/04/06 02:44:29;;;;;;;0.70;0.70;;;10.90;99.90;;;;;;5009722;28;20397;-71
2022/04/06 02:46:55;;;;;;;0.60;0.60;;;10.90;99.90;;;;;;5012169;28;20379;-71
2022/04/06 02:49:20;;;;;;;0.40;0.30;;;11.00;99.90;;;;;;5011739;28;20389;-71
2022/04/06 02:51:46;;;;;;;0.40;0.28;;;11.00;99.90;;;;;;5010686;28;21254;-71
2022/04/06 02:54:12;;;;;;;0.40;0.30;;;11.00;99.90;;;;;;5011633;28;20403;-71
2022/04/06 02:56:38;;;;;;;0.90;0.90;;;10.90;99.90;;;;;;5010565;28;20472;-71
2022/04/06 02:59:04;;;;;;;0.40;0.20;;;10.90;99.90;;;;;;5011509;28;20400;-71
2022/04/06 03:01:30;;;;;;;0.40;0.20;;;10.90;99.90;;;;;;5011340;28;20377;-71
2022/04/06 03:03:56;;;;;;;0.40;0.20;;;10.90;99.90;;;;;;5009846;28;20902;-69
2022/04/06 03:06:21;;;;;;;0.40;0.30;;;10.90;99.90;;;;;;5026448;28;20396;-69
2022/04/06 03:08:47;;;;;;;0.80;0.60;;;10.90;99.90;;;;;;5010213;28;20948;-69
2022/04/06 03:11:13;;;;;;;0.40;0.20;;;10.90;99.90;;;;;;5028757;28;20525;-70
2022/04/06 03:13:39;;;;;;;0.40;0.20;;;10.90;99.90;;;;;;5030765;28;20379;-73
2022/04/06 03:16:06;;;;;;;0.40;0.20;;;10.80;99.90;;;;;;5030182;28;20426;-71
2022/04/06 03:18:32;;;;;;;0.40;0.20;;;10.80;99.90;;;;;;5030952;28;20415;-70
2022/04/06 03:20:58;;;;;;;0.50;0.50;;;10.90;99.90;;;;;;5030073;28;20379;-70
2022/04/06 03:23:24;;;;;;;0.40;0.30;;;10.80;99.90;;;;;;5030894;28;20414;-69
2022/04/06 03:25:49;;;;;;;0.40;0.20;;;10.80;99.90;;;;;;5030345;28;20782;-71
2022/04/06 03:28:15;;;;;;;1.00;1.00;;;10.80;99.90;;;;;;5030972;28;20391;-70
2022/04/06 03:30:41;;;;;;;0.40;0.20;;;10.80;99.90;;;;;;5046147;28;20448;-70
2022/04/06 03:33:09;;;;;;;0.40;0.40;;;10.70;99.90;;;;;;5030093;28;20461;-71
2022/04/06 03:35:36;;;;;;;0.40;0.30;;;10.60;99.90;;;;;;5029578;28;20498;-71
2022/04/06 03:38:02;;;;;;;0.40;0.20;;;10.60;99.90;;;;;;5021625;28;20409;-71
2022/04/06 03:40:30;;;;;;;1.20;0.90;;;10.70;99.90;;;;;;5011465;28;20916;-71
2022/04/06 03:42:57;;;;;;;0.40;0.20;;;10.60;99.90;;;;;;5011282;28;20393;-70
2022/04/06 03:45:24;;;;;;;0.40;0.40;;;10.70;99.90;;;;;;5025423;28;20385;-70
2022/04/06 03:47:49;;;;;;;0.40;0.27;;;10.60;99.90;;;;;;5011078;28;20455;-70
2022/04/06 03:50:16;;;;;;;0.40;0.20;;;10.60;99.90;;;;;;5010098;28;20388;-70
2022/04/06 03:52:41;;;;;;;0.40;0.20;;;10.60;99.90;;;;;;5011014;28;20456;-70
2022/04/06 03:55:09;;;;;;;0.40;0.30;;;10.60;99.90;;;;;;5010844;28;20416;-72
2022/04/06 03:57:36;;;;;;;0.60;0.50;;;10.60;99.90;;;;;;5010738;28;20389;-71
2022/04/06 04:00:04;;;;;;;0.40;0.20;;;10.60;99.90;;;;;;5010951;28;20409;-70
2022/04/06 04:02:30;;;;;;;0.40;0.20;;;10.60;99.90;;;;;;5009880;28;20484;-71
2022/04/06 04:04:56;;;;;;;0.40;0.20;;;10.60;99.90;;;;;;5010903;28;20424;-71
2022/04/06 04:07:22;;;;;;;0.40;0.30;;;10.60;99.90;;;;;;5009909;28;20800;-71
2022/04/06 04:09:50;;;;;;;0.40;0.20;;;10.60;99.90;;;;;;5016681;28;20434;-70
2022/04/06 04:12:16;;;;;;;0.40;0.20;;;10.60;99.90;;;;;;5030507;28;20387;-69
2022/04/06 04:14:43;;;;;;;0.40;0.20;;;10.70;99.90;;;;;;5029452;28;20470;-70
2022/04/06 04:17:09;;;;;;;0.40;0.20;;;10.60;99.90;;;;;;5030649;28;20415;-71
2022/04/06 04:19:35;;;;;;;0.40;0.20;;;10.60;99.90;;;;;;5029542;28;20443;-71
2022/04/06 04:22:01;;;;;;;0.40;0.40;;;10.60;99.90;;;;;;5029442;28;20748;-71
2022/04/06 04:24:26;;;;;;;0.40;0.20;;;10.60;99.90;;;;;;5045629;28;20387;-70
2022/04/06 04:26:52;;;;;;;0.40;0.20;;;10.60;99.90;;;;;;5029925;28;20381;-71
2022/04/06 04:29:18;;;;;;;0.40;0.20;;;10.60;99.90;;;;;;5030428;28;20394;-73
2022/04/06 04:31:44;;;;;;;0.60;0.60;;;10.60;99.90;;;;;;5044856;28;20390;-71
2022/04/06 04:34:10;;;;;;;0.40;0.20;;;10.70;99.90;;;;;;5030123;28;20387;-70
2022/04/06 04:36:37;;;;;;;0.40;0.20;;;10.70;99.90;;;;;;5028521;28;20874;-70
2022/04/06 04:39:03;;;;;;;0.40;0.30;;;10.60;99.90;;;;;;5002828;28;20416;-70
2022/04/06 04:41:28;;;;;;;2.70;0.80;;;10.70;99.90;;;;;;4999622;28;20394;-69
2022/04/06 04:43:54;;;;;;;0.40;0.20;;;10.70;99.90;;;;;;4990570;28;20708;-70
2022/04/06 04:46:21;;;;;;;0.40;0.20;;;10.60;99.90;;;;;;4998164;28;20876;-70
2022/04/06 04:48:46;;;;;;;0.40;0.20;;;10.70;99.90;;;;;;5010604;28;20397;-70
2022/04/06 04:51:13;;;;;;;0.40;0.20;;;10.70;99.90;;;;;;4991089;28;20631;-69
2022/04/06 04:53:38;;;;;;;0.40;0.20;;;10.60;99.90;;;;;;4996782;28;20415;-69
2022/04/06 04:56:05;;;;;;;0.40;0.20;;;10.60;99.90;;;;;;5009418;28;20412;-71
2022/04/06 04:58:31;;;;;;;0.40;0.20;;;10.60;99.90;;;;;;5010239;28;20417;-71
2022/04/06 05:00:56;;;;;;;0.40;0.30;;;10.70;99.90;;;;;;5010411;28;20385;-71
2022/04/06 05:03:22;;;;;;;0.40;0.20;;;10.60;99.90;;;;;;5028249;28;20380;-71
2022/04/06 05:05:53;;;;;;;0.40;0.20;;;10.70;99.90;;;;;;5033121;28;20395;-71
2022/04/06 05:08:20;;;;;;;0.50;0.50;;;10.70;99.90;;;;;;5032453;28;20493;-71
2022/04/06 05:10:45;;;;;;;0.70;0.50;;;10.70;99.90;;;;;;5019522;28;20424;-71
2022/04/06 05:13:13;;;;;;;0.40;0.20;;;10.70;99.90;;;;;;5013191;28;20864;-72
2022/04/06 05:15:39;;;;;;;0.40;0.30;;;10.70;99.90;;;;;;5013412;28;20439;-71
2022/04/06 05:18:05;;;;;;;0.40;0.20;;;10.80;99.90;;;;;;5013498;28;20385;-70
2022/04/06 05:20:31;;;;;;;0.40;0.20;;;10.80;99.90;;;;;;5012805;28;20711;-72
2022/04/06 05:22:57;;;;;;;0.40;0.20;;;10.70;99.90;;;;;;5013426;28;20393;-69
2022/04/06 05:25:23;;;;;;;0.40;0.20;;;10.80;99.90;;;;;;5013037;28;20522;-71
2022/04/06 05:27:54;;;;;;;0.40;0.20;;;10.80;99.90;;;;;;5013290;28;20742;-71
2022/04/06 05:30:22;;;;;;;0.50;0.50;;;10.90;99.90;;;;;;5013255;28;20822;-71
2022/04/06 05:32:49;;;;;;;0.40;0.20;;;10.80;99.90;;;;;;5012510;28;20397;-69
2022/04/06 05:35:15;;;;;;;0.40;0.20;;;10.80;99.90;;;;;;5013345;28;20420;-70
2022/04/06 05:37:42;;;;;;;0.40;0.20;;;10.90;99.90;;;;;;5011707;28;20447;-70
2022/04/06 05:40:09;;;;;;;0.40;0.20;;;10.80;99.90;;;;;;5013202;28;20423;-70
2022/04/06 05:42:35;;;;;;;0.40;0.20;;;11.00;99.90;;;;;;5012732;28;20882;-71
2022/04/06 05:45:02;;;;;;;0.40;0.20;;;11.00;99.90;;;;;;5013002;28;20982;-70
2022/04/06 05:47:27;;;;;;;0.40;0.20;;;11.00;99.90;;;;;;5018531;28;20798;-71
2022/04/06 05:49:53;;;;;;;0.40;0.20;;;11.00;99.90;;;;;;5021728;28;20392;-70
2022/04/06 05:52:19;;;;;;;0.40;0.20;;;11.10;99.90;;;;;;5021063;28;20399;-70
2022/04/06 05:54:44;;;;;;;0.40;0.20;;;11.10;99.90;;;;;;5023169;28;20384;-71
2022/04/06 05:57:10;;;;;;;0.60;0.60;;;11.10;99.90;;;;;;5020693;28;21798;-70
2022/04/06 05:59:40;;;;;;;0.40;0.20;;;11.20;99.90;;;;;;5022682;28;20436;-69
2022/04/06 06:02:07;;;;;;;0.40;0.20;;;11.20;99.90;;;;;;5023891;28;20403;-69
2022/04/06 06:04:33;;;;;;;0.40;0.30;;;11.20;99.90;;;;;;5024192;28;20410;-69
2022/04/06 06:07:00;;;;;;;0.40;0.20;;;11.20;99.90;;;;;;5022826;28;20399;-70
2022/04/06 06:09:26;;;;;;;0.40;0.20;;;11.20;99.90;;;;;;5024576;28;20856;-69
2022/04/06 06:11:54;;;;;;;0.40;0.20;;;11.30;99.90;;;;;;5008623;28;20400;-70
2022/04/06 06:14:20;;;;;;;0.40;0.20;;;11.30;99.90;;;;;;5007362;28;20388;-70
2022/04/06 06:16:46;;;;;;;0.40;0.20;;;11.40;99.90;;;;;;5002708;28;20470;-70
2022/04/06 06:19:12;;;;;;;0.40;0.20;;;11.30;99.90;;;;;;5003436;28;20422;-70
2022/04/06 06:21:38;;;;;;;0.40;0.20;;;11.40;99.90;;;;;;5008780;28;20423;-70
2022/04/06 06:24:06;;;;;;;0.40;0.30;;;11.40;99.90;;;;;;5012399;28;20419;-70
2022/04/06 06:26:33;;;;;;;0.40;0.20;;;11.30;99.90;;;;;;5011764;28;20392;-70
2022/04/06 06:28:59;;;;;;;0.40;0.20;;;11.40;99.90;;;;;;5012176;28;20816;-71
2022/04/06 06:31:27;;;;;;;0.40;0.20;;;11.40;99.90;;;;;;5011435;28;20381;-71
2022/04/06 06:33:53;;;;;;;0.40;0.20;;;11.50;99.90;;;;;;5012209;28;20388;-71
2022/04/06 06:36:19;;;;;;;0.40;0.20;;;11.40;99.90;;;;;;5011500;28;20392;-73
2022/04/06 06:38:45;;;;;;;0.40;0.20;;;11.50;99.90;;;;;;5011909;28;20417;-71
2022/04/06 06:41:11;;;;;;;0.40;0.20;;;11.60;99.90;;;;;;5012109;28;20475;-71
2022/04/06 06:43:36;;;;;;;0.40;0.23;;;11.60;99.90;;;;;;5011038;28;20389;-71
2022/04/06 06:46:02;;;;;;;0.40;0.30;;;11.50;99.90;;;;;;5010729;28;20467;-70
2022/04/06 06:48:28;;;;;;;0.40;0.30;;;11.50;99.90;;;;;;5011443;28;20416;-71
2022/04/06 06:50:54;;;;;;;0.40;0.30;;;11.60;99.90;;;;;;5011718;28;20385;-70
2022/04/06 06:53:19;;;;;;;0.40;0.27;;;11.60;99.90;;;;;;5011986;28;20936;-70
2022/04/06 06:55:45;;;;;;;0.40;0.30;;;11.60;99.90;;;;;;5011086;28;20426;-71
2022/04/06 06:58:11;;;;;;;0.40;0.20;;;11.70;99.90;;;;;;5011387;28;20428;-70
2022/04/06 07:00:36;;;;;;;0.40;0.20;;;11.70;99.90;;;;;;5010973;28;20389;-73
2022/04/06 07:03:02;;;;;;;0.40;0.30;;;11.70;99.90;;;;;;5011375;28;20377;-70
2022/04/06 07:05:28;;;;;;;0.70;0.40;;;11.80;99.90;;;;;;5011693;28;20476;-71
2022/04/06 07:07:55;;;;;;;0.40;0.30;;;11.90;99.90;;;;;;5011021;28;20388;-71
2022/04/06 07:10:22;;;;;;;0.40;0.20;;;11.90;99.90;;;;;;5022028;28;20760;-71
2022/04/06 07:12:48;;;;;;;0.40;0.20;;;12.10;99.90;;;;;;5046012;28;20393;-72
2022/04/06 07:15:14;;;;;;;0.40;0.25;;;12.10;99.90;;;;;;5030832;28;20787;-70
2022/04/06 07:17:40;;;;;;;0.40;0.20;;;12.20;99.90;;;;;;5030764;28;20384;-70
2022/04/06 07:20:07;;;;;;;0.40;0.20;;;12.30;99.90;;;;;;5030295;28;20477;-71
2022/04/06 07:22:33;;;;;;;0.40;0.20;;;12.40;99.90;;;;;;5031048;28;20398;-70
2022/04/06 07:24:59;;;;;;;0.40;0.20;;;12.50;99.90;;;;;;5029587;28;20419;-71
2022/04/06 07:27:25;;;;;;;0.40;0.20;;;12.30;99.90;;;;;;5031364;28;20417;-71
2022/04/06 07:29:53;;;;;;;0.40;0.20;;;12.30;99.90;;;;;;5031133;28;20795;-71
2022/04/06 07:32:19;;;;;;;0.40;0.20;;;12.00;99.90;;;;;;5030459;28;20393;-71
2022/04/06 07:34:45;;;;;;;0.40;0.20;;;12.20;99.90;;;;;;5030883;28;20789;-71
2022/04/06 07:37:10;;;;;;;0.40;0.20;;;12.40;99.90;;;;;;5029807;28;20403;-71
2022/04/06 07:39:36;;;;;;;0.40;0.20;;;12.40;99.90;;;;;;5030452;28;20780;-71
2022/04/06 07:42:03;;;;;;;0.40;0.20;;;12.30;99.90;;;;;;5030822;28;20411;-71
2022/04/06 07:44:28;;;;;;;0.40;0.40;;;12.20;99.90;;;;;;5030237;28;20445;-71
2022/04/06 07:46:54;;;;;;;0.40;0.20;;;12.10;99.90;;;;;;5031019;28;20781;-71
2022/04/06 07:49:20;;;;;;;0.40;0.20;;;12.10;99.90;;;;;;5030003;28;20854;-71
2022/04/06 07:51:47;;;;;;;0.40;0.20;;;12.00;99.90;;;;;;5030613;28;20398;-71
2022/04/06 07:54:13;;;;;;;0.40;0.30;;;12.00;99.90;;;;;;5030716;28;20391;-70
2022/04/06 07:56:39;;;;;;;0.40;0.30;;;12.10;99.90;;;;;;5030017;28;20383;-70
2022/04/06 07:59:05;;;;;;;0.40;0.20;;;12.20;99.90;;;;;;5030643;28;20403;-70
2022/04/06 08:01:31;;;;;;;0.40;0.20;;;12.30;99.90;;;;;;5029872;28;20387;-72
2022/04/06 08:03:57;;;;;;;0.40;0.20;;;12.50;99.90;;;;;;5030487;28;20383;-70
2022/04/06 08:06:24;;;;;;;0.40;0.20;;;12.50;99.90;;;;;;5030339;28;20391;-71
2022/04/06 08:08:51;;;;;;;0.40;0.20;;;12.60;99.90;;;;;;5030144;28;20470;-70
2022/04/06 08:11:20;;;;;;;0.40;0.40;;;12.60;99.90;;;;;;5012581;28;20384;-69
2022/04/06 08:13:47;;;;;;;0.40;0.20;;;12.70;99.90;;;;;;5010147;28;20397;-70
2022/04/06 08:16:13;;;;;;;0.40;0.20;;;12.80;99.90;;;;;;5010385;28;20411;-70
2022/04/06 08:18:39;;;;;;;0.40;0.20;;;12.90;99.90;;;;;;5009944;28;20866;-72
2022/04/06 08:21:09;;;;;;;0.40;0.20;;;12.90;99.90;;;;;;5010666;28;20758;-70
2022/04/06 08:23:35;;;;;;;0.40;0.20;;;12.80;99.90;;;;;;5009627;28;20424;-69
2022/04/06 08:26:01;;;;;;;0.40;0.20;;;13.00;99.90;;;;;;5010068;28;20935;-70
2022/04/06 08:28:27;;;;;;;0.40;0.20;;;13.00;99.90;;;;;;5011151;28;20392;-72
2022/04/06 08:30:53;;;;;;;0.40;0.20;;;13.10;99.90;;;;;;5009979;28;20467;-72
2022/04/06 08:33:19;;;;;;;0.40;0.20;;;13.10;99.90;;;;;;5010598;28;20380;-70
2022/04/06 08:35:45;;;;;;;0.40;0.20;;;12.90;99.90;;;;;;5010309;28;20384;-71
2022/04/06 08:38:13;;;;;;;0.40;0.20;;;12.90;99.90;;;;;;5011464;28;20420;-70
2022/04/06 08:40:41;;;;;;;0.40;0.20;;;12.80;99.90;;;;;;5014190;28;20400;-69
2022/04/06 08:43:08;;;;;;;0.40;0.20;;;12.90;99.90;;;;;;5013631;28;20408;-70
2022/04/06 08:45:39;;;;;;;0.40;0.20;;;13.00;99.90;;;;;;5014173;28;20468;-70
2022/04/06 08:48:10;;;;;;;0.80;0.80;;;13.00;99.90;;;;;;5013354;28;20396;-69
2022/04/06 08:50:37;;;;;;;0.40;0.20;;;13.00;99.90;;;;;;5014135;28;20389;-71
2022/04/06 08:53:05;;;;;;;0.40;0.20;;;13.00;99.90;;;;;;5013165;28;20889;-70
2022/04/06 08:55:32;;;;;;;0.40;0.20;;;13.00;99.90;;;;;;5014410;28;20753;-70
2022/04/06 08:57:59;;;;;;;0.40;0.20;;;12.80;99.90;;;;;;5014259;28;20391;-70
2022/04/06 09:00:26;;;;;;;0.40;0.30;;;12.70;99.90;;;;;;5013512;28;20393;-71
2022/04/06 09:02:52;;;;;;;0.40;0.30;;;12.80;99.90;;;;;;5013991;28;20388;-70
2022/04/06 09:05:21;;;;;;;0.40;0.20;;;12.70;99.90;;;;;;5013037;28;20389;-70
2022/04/06 09:07:51;;;;;;;0.40;0.20;;;12.90;99.90;;;;;;5013942;28;20404;-69
2022/04/06 09:10:33;;;;;;;0.40;0.32;;;13.00;99.90;;;;;;5022765;28;20875;-70
2022/04/06 09:13:23;;;;;;;0.40;0.20;;;13.00;99.90;;;;;;5033664;28;20489;-69
2022/04/06 09:15:53;;;;;;;0.40;0.20;;;13.10;99.90;;;;;;5033466;28;20445;-71
2022/04/06 09:18:24;;;;;;;0.40;0.30;;;12.90;99.90;;;;;;5032790;28;20422;-71
2022/04/06 09:20:59;;;;;;;0.40;0.20;;;12.90;99.90;;;;;;5032360;28;20407;-70
2022/04/06 09:23:28;;;;;;;0.40;0.20;;;13.00;99.90;;;;;;5032522;28;20450;-71
2022/04/06 09:25:54;;;;;;;0.40;0.20;;;13.10;99.90;;;;;;5033489;28;20383;-70
2022/04/06 09:28:20;;;;;;;0.40;0.20;;;13.20;99.90;;;;;;5032233;28;20415;-72
2022/04/06 09:30:46;;;;;;;0.40;0.20;;;13.40;99.90;;;;;;5032894;28;20740;-71
2022/04/06 09:33:18;;;;;;;0.40;0.20;;;13.60;99.90;;;;;;5031939;28;20868;-71
2022/04/06 09:35:44;;;;;;;0.40;0.20;;;14.10;99.90;;;;;;5032546;28;20409;-71
2022/04/06 09:38:31;;;;;;;0.40;0.20;;;14.20;99.90;;;;;;5032761;28;20415;-71
2022/04/06 09:41:06;;;;;;;0.40;0.20;;;14.20;99.90;;;;;;5032849;28;20852;-70
2022/04/06 09:43:33;;;;;;;0.40;0.30;;;14.50;99.80;;;;;;5032879;28;20427;-71
2022/04/06 09:49:04;;;;;;;0.40;0.20;;;14.20;98.80;;;;;;5032174;28;20521;-70
2022/04/06 09:51:30;;;;;;;0.40;0.30;;;14.20;99.30;;;;;;5032763;28;20391;-70
2022/04/06 09:54:00;;;;;;;0.40;0.20;;;14.30;98.90;;;;;;5031782;28;20410;-70
2022/04/06 09:56:26;;;;;;;0.40;0.20;;;14.40;99.00;;;;;;5031433;28;20379;-72
2022/04/06 09:58:53;;;;;;;0.40;0.30;;;14.10;99.10;;;;;;5031906;28;20403;-71
2022/04/06 10:01:18;;;;;;;0.40;0.20;;;14.30;98.70;;;;;;5032653;28;20429;-71
2022/04/06 10:03:50;;;;;;;0.40;0.20;;;14.30;99.00;;;;;;5031534;28;20395;-73
2022/04/06 10:06:16;;;;;;;0.40;0.20;;;14.40;98.60;;;;;;5032514;28;20422;-70
2022/04/06 10:08:43;;;;;;;0.40;0.30;;;14.80;97.80;;;;;;5032622;28;20914;-70
2022/04/06 10:11:11;;;;;;;0.40;0.20;;;14.80;97.40;;;;;;5014275;28;20392;-72
2022/04/06 10:13:39;;;;;;;0.40;0.20;;;14.70;98.20;;;;;;5012431;28;20381;-71
2022/04/06 10:16:11;;;;;;;0.40;0.30;;;14.60;98.10;;;;;;5011777;28;20427;-71
2022/04/06 10:18:38;;;;;;;0.40;0.20;;;14.30;97.30;;;;;;5012663;28;20409;-71
2022/04/06 10:21:19;;;;;;;0.40;0.20;;;14.30;97.40;;;;;;5011738;28;20397;-70
2022/04/06 10:24:17;;;;;;;0.40;0.30;;;14.70;97.40;;;;;;5011245;28;20810;-70
2022/04/06 10:26:46;;;;;;;0.40;0.20;;;14.50;97.40;;;;;;5012577;28;20393;-70
2022/04/06 10:29:12;;;;;;;0.40;0.20;;;14.70;97.50;;;;;;5011921;28;20423;-69
2022/04/06 10:31:38;;;;;;;0.40;0.20;;;14.90;96.90;;;;;;5012235;28;20432;-72
2022/04/06 10:34:22;;;;;;;0.40;0.20;;;14.80;97.40;;;;;;5011830;28;20385;-73
2022/04/06 10:37:04;;;;;;;0.40;0.20;;;15.20;96.60;;;;;;5011695;28;20412;-70
2022/04/06 10:39:30;;;;;;;0.40;0.20;;;15.20;95.90;;;;;;5011706;28;20905;-71
2022/04/06 10:42:13;;;;;;;0.40;0.20;;;15.40;95.70;;;;;;5010781;28;20750;-70
2022/04/06 10:44:39;;;;;;;0.40;0.20;;;15.20;95.90;;;;;;5012113;28;20526;-70
2022/04/06 10:47:12;;;;;;;0.40;0.20;;;15.50;95.50;;;;;;5011494;28;20393;-71
2022/04/06 10:49:39;;;;;;;0.40;0.30;;;14.80;95.70;;;;;;5012079;28;20400;-70
2022/04/06 10:52:25;;;;;;;0.40;0.20;;;15.00;96.20;;;;;;5011944;28;20475;-71
2022/04/06 10:54:52;;;;;;;0.40;0.20;;;15.30;95.80;;;;;;5011547;28;20393;-71
2022/04/06 10:57:19;;;;;;;0.40;0.20;;;14.90;95.50;;;;;;5010928;28;20391;-72
2022/04/06 11:00:12;;;;;;;0.40;0.20;;;14.70;96.80;;;;;;5010008;28;20463;-70
2022/04/06 11:02:47;;;;;;;0.55;0.43;;;15.20;96.20;;;;;;5011292;28;21308;-69
2022/04/06 11:05:46;;;;;;;0.40;0.20;;;15.30;95.70;;;;;;5011723;28;20853;-71
2022/04/06 11:11:38;;;;;;;0.40;0.30;;;15.70;94.10;;;;;;4991342;28;20377;-72
2022/04/06 11:14:05;;;;;;;0.40;0.20;;;16.00;93.20;;;;;;5010878;28;20397;-71
2022/04/06 11:16:44;;;;;;;0.40;0.20;;;15.80;93.80;;;;;;5019362;28;20426;-71
2022/04/06 11:19:10;;;;;;;0.40;0.20;;;15.90;94.10;;;;;;5029100;28;20411;-70
2022/04/06 11:21:50;;;;;;;0.40;0.20;;;16.20;92.90;;;;;;5020944;28;20455;-71
2022/04/06 11:24:21;;;;;;;0.40;0.20;;;16.40;92.60;;;;;;5021108;28;20426;-70
2022/04/06 11:26:48;;;;;;;0.40;0.30;;;16.10;93.00;;;;;;5021222;28;20477;-70
2022/04/06 11:29:13;;;;;;;0.40;0.20;;;16.00;93.30;;;;;;5011377;28;20400;-70
2022/04/06 11:32:04;;;;;;;0.40;0.20;;;16.20;92.60;;;;;;5010701;28;20381;-71
2022/04/06 11:34:38;;;;;;;0.40;0.20;;;16.30;92.30;;;;;;5011308;28;20385;-70
2022/04/06 11:37:06;;;;;;;0.40;0.20;;;17.10;90.60;;;;;;5010408;28;20470;-70
2022/04/06 11:39:32;;;;;;;0.40;0.20;;;17.80;89.50;;;;;;5011390;28;20408;-70
2022/04/06 11:42:05;;;;;;;0.40;0.30;;;18.10;86.60;;;;;;5008293;28;20401;-72
2022/04/06 11:44:31;;;;;;;0.40;0.20;;;17.90;86.70;;;;;;4998944;28;20427;-70
2022/04/06 11:46:57;;;;;;;0.40;0.20;;;18.20;87.20;;;;;;5010070;28;20392;-70
2022/04/06 11:49:26;;;;;;;0.40;0.20;;;18.50;84.00;;;;;;5006455;28;20531;-71
2022/04/06 11:51:56;;;;;;;0.40;0.20;;;18.10;84.50;;;;;;5008972;28;20407;-74
2022/04/06 11:54:23;;;;;;;0.40;0.20;;;18.50;80.60;;;;;;5014470;28;20788;-72
2022/04/06 11:56:50;;;;;;;0.40;0.20;;;18.50;79.80;;;;;;5018393;28;20894;-73
2022/04/06 11:59:18;;;;;;;0.40;0.20;;;18.70;78.90;;;;;;5004978;28;20422;-71
2022/04/06 12:01:46;;;;;;;0.40;0.30;;;18.80;79.30;;;;;;5004528;28;20396;-73
2022/04/06 12:04:23;;;;;;;0.40;0.30;;;19.40;78.50;;;;;;5013197;28;20395;-70
2022/04/06 12:06:49;;;;;;;0.40;0.20;;;19.00;79.00;;;;;;5015912;28;20415;-69
2022/04/06 12:09:16;;;;;;;0.40;0.30;;;18.70;80.90;;;;;;5008106;28;20416;-70
2022/04/06 12:11:42;;;;;;;0.40;0.20;;;19.30;79.10;;;;;;5012316;28;20399;-73
2022/04/06 12:14:12;;;;;;;0.40;0.30;;;19.40;76.10;;;;;;5014127;28;20393;-72
2022/04/06 12:16:39;;;;;;;0.40;0.40;;;20.20;74.10;;;;;;5022908;28;20496;-72
2022/04/06 12:19:11;;;;;;;0.40;0.30;;;19.70;74.40;;;;;;5022458;28;20889;-73
2022/04/06 12:21:41;;;;;;;0.40;0.22;;;20.20;76.90;;;;;;5023064;28;20793;-72
2022/04/06 12:24:07;;;;;;;0.40;0.20;;;20.70;73.50;;;;;;5019556;28;20381;-75
2022/04/06 12:26:45;;;;;;;0.40;0.20;;;19.80;73.40;;;;;;5023107;28;20396;-70
2022/04/06 12:29:15;;;;;;;0.40;0.20;;;19.60;76.40;;;;;;5022637;28;20489;-73
2022/04/06 12:31:43;;;;;;;0.40;0.20;;;19.90;73.90;;;;;;5025024;28;20424;-71
2022/04/06 12:34:28;;;;;;;0.40;0.30;;;20.00;75.00;;;;;;5022584;28;20383;-71
2022/04/06 12:36:54;;;;;;;0.40;0.20;;;20.30;75.30;;;;;;5020025;28;20891;-72
2022/04/06 12:39:20;;;;;;;0.40;0.20;;;19.70;75.20;;;;;;5020897;28;20387;-71
2022/04/06 12:42:05;;;;;;;0.40;0.20;;;19.00;74.70;;;;;;5023984;28;20394;-71
2022/04/06 12:44:33;;;;;;;0.40;0.20;;;17.60;76.30;;;;;;5032615;28;20436;-71
2022/04/06 12:47:00;;;;;;;0.40;0.30;;;17.20;80.20;;;;;;5033982;28;20398;-72
2022/04/06 12:49:29;;;;;;;0.40;0.30;;;17.00;79.30;;;;;;5033105;28;20918;-72
2022/04/06 12:52:08;;;;;;;0.40;0.20;;;17.30;80.90;;;;;;5034074;28;20776;-73
2022/04/06 12:54:35;;;;;;;0.40;0.28;;;16.80;81.10;;;;;;5033057;28;20383;-71
2022/04/06 12:57:06;;;;;;;0.40;0.20;;;17.30;82.60;;;;;;5033864;28;20409;-71
2022/04/06 12:59:43;;;;;;;0.40;0.20;;;17.30;83.50;;;;;;5033222;28;20398;-71
2022/04/06 13:02:25;;;;;;;0.40;0.30;;;17.70;83.10;;;;;;5033838;28;20466;-72